sensor_id;sensor_type;location;lat;lon;timestamp;temperature;humidity
9824;DHT22;4951;50.778;7.196;2022-12-07T00:01:39;4.20;99.90
9824;DHT22;4951;50.778;7.196;2022-12-07T00:04:07;4.20;99.90
9824;DHT22;4951;50.778;7.196;2022-12-07T00:06:36;4.20;99.90
9824;DHT22;4951;50.778;7.196;2022-12-07T00:09:06;4.20;99.90
9824;DHT22;4951;50.778;7.196;2022-12-07T00:11:34;4.20;99.90
9824;DHT22;4951;50.778;7.196;2022-12-07T00:14:03;4.20;99.90
9824;DHT22;4951;50.778;7.196;2022-12-07T00:16:32;4.20;99.90
9824;DHT22;4951;50.778;7.196;2022-12-07T00:18:59;4.20;99.90
9824;DHT22;4951;50.778;7.196;2022-12-07T00:21:29;4.20;99.90
9824;DHT22;4951;50.778;7.196;2022-12-07T00:23:57;4.20;99.90
9824;DHT22;4951;50.778;7.196;2022-12-07T00:26:27;4.20;99.90
9824;DHT22;4951;50.778;7.196;2022-12-07T00:28:58;4.20;99.90
9824;DHT22;4951;50.778;7.196;2022-12-07T00:31:26;4.20;99.90
9824;DHT22;4951;50.778;7.196;2022-12-07T00:33:53;4.30;99.90
9824;DHT22;4951;50.778;7.196;2022-12-07T00:36:22;4.30;99.90
9824;DHT22;4951;50.778;7.196;2022-12-07T00:38:49;4.30;99.90
9824;DHT22;4951;50.778;7.196;2022-12-07T00:41:18;4.30;99.90
9824;DHT22;4951;50.778;7.196;2022-12-07T00:43:47;4.30;99.90
9824;DHT22;4951;50.778;7.196;2022-12-07T00:46:15;4.30;99.90
9824;DHT22;4951;50.778;7.196;2022-12-07T00:48:42;4.30;99.90
9824;DHT22;4951;50.778;7.196;2022-12-07T00:51:10;4.30;99.90
9824;DHT22;4951;50.778;7.196;2022-12-07T00:53:38;4.30;99.90
9824;DHT22;4951;50.778;7.196;2022-12-07T00:56:06;4.40;99.90
9824;DHT22;4951;50.778;7.196;2022-12-07T00:58:33;4.40;99.90
9824;DHT22;4951;50.778;7.196;2022-12-07T01:01:03;4.40;99.90
9824;DHT22;4951;50.778;7.196;2022-12-07T01:03:30;4.40;99.90
9824;DHT22;4951;50.778;7.196;2022-12-07T01:05:58;4.40;99.90
9824;DHT22;4951;50.778;7.196;2022-12-07T01:08:26;4.40;99.90
9824;DHT22;4951;50.778;7.196;2022-12-07T01:10:58;4.40;99.90
9824;DHT22;4951;50.778;7.196;2022-12-07T01:13:28;4.40;99.90
9824;DHT22;4951;50.778;7.196;2022-12-07T01:15:57;4.50;99.90
9824;DHT22;4951;50.778;7.196;2022-12-07T01:18:31;4.50;99.90
9824;DHT22;4951;50.778;7.196;2022-12-07T01:21:00;4.50;99.90
9824;DHT22;4951;50.778;7.196;2022-12-07T01:23:28;4.50;99.90
9824;DHT22;4951;50.778;7.196;2022-12-07T01:25:56;4.50;99.90
9824;DHT22;4951;50.778;7.196;2022-12-07T01:28:23;4.50;99.90
9824;DHT22;4951;50.778;7.196;2022-12-07T01:30:58;4.50;99.90
9824;DHT22;4951;50.778;7.196;2022-12-07T01:33:27;4.50;99.90
9824;DHT22;4951;50.778;7.196;2022-12-07T01:36:00;4.50;99.90
9824;DHT22;4951;50.778;7.196;2022-12-07T01:38:28;4.50;99.90
9824;DHT22;4951;50.778;7.196;2022-12-07T01:40:55;4.50;99.90
9824;DHT22;4951;50.778;7.196;2022-12-07T01:43:24;4.50;99.90
9824;DHT22;4951;50.778;7.196;2022-12-07T01:45:52;4.50;99.90
9824;DHT22;4951;50.778;7.196;2022-12-07T01:48:22;4.50;99.90
9824;DHT22;4951;50.778;7.196;2022-12-07T01:50:52;4.50;99.90
9824;DHT22;4951;50.778;7.196;2022-12-07T01:53:21;4.50;99.90
9824;DHT22;4951;50.778;7.196;2022-12-07T01:55:52;4.60;99.90
9824;DHT22;4951;50.778;7.196;2022-12-07T01:58:21;4.50;99.90
9824;DHT22;4951;50.778;7.196;2022-12-07T02:00:49;4.60;99.90
9824;DHT22;4951;50.778;7.196;2022-12-07T02:03:19;4.60;99.90
9824;DHT22;4951;50.778;7.196;2022-12-07T02:05:49;4.50;99.90
9824;DHT22;4951;50.778;7.196;2022-12-07T02:08:16;4.60;99.90
9824;DHT22;4951;50.778;7.196;2022-12-07T02:10:45;4.60;99.90
9824;DHT22;4951;50.778;7.196;2022-12-07T02:13:15;4.50;99.90
9824;DHT22;4951;50.778;7.196;2022-12-07T02:16:03;4.60;99.90
9824;DHT22;4951;50.778;7.196;2022-12-07T02:18:41;4.60;99.90
9824;DHT22;4951;50.778;7.196;2022-12-07T02:21:13;4.60;99.90
9824;DHT22;4951;50.778;7.196;2022-12-07T02:24:03;4.60;99.90
9824;DHT22;4951;50.778;7.196;2022-12-07T02:27:10;4.60;99.90
9824;DHT22;4951;50.778;7.196;2022-12-07T02:29:43;4.60;99.90
9824;DHT22;4951;50.778;7.196;2022-12-07T02:32:14;4.60;99.90
9824;DHT22;4951;50.778;7.196;2022-12-07T02:34:48;4.60;99.90
9824;DHT22;4951;50.778;7.196;2022-12-07T02:37:26;4.60;99.90
9824;DHT22;4951;50.778;7.196;2022-12-07T02:40:00;4.60;99.90
9824;DHT22;4951;50.778;7.196;2022-12-07T02:42:32;4.60;99.90
9824;DHT22;4951;50.778;7.196;2022-12-07T02:45:02;4.60;99.90
9824;DHT22;4951;50.778;7.196;2022-12-07T02:47:29;4.60;99.90
9824;DHT22;4951;50.778;7.196;2022-12-07T02:49:58;4.60;99.90
9824;DHT22;4951;50.778;7.196;2022-12-07T02:52:25;4.60;99.90
9824;DHT22;4951;50.778;7.196;2022-12-07T02:54:52;4.60;99.90
9824;DHT22;4951;50.778;7.196;2022-12-07T02:57:35;4.60;99.90
9824;DHT22;4951;50.778;7.196;2022-12-07T03:00:09;4.60;99.90
9824;DHT22;4951;50.778;7.196;2022-12-07T03:02:49;4.60;99.90
9824;DHT22;4951;50.778;7.196;2022-12-07T03:05:35;4.60;99.90
9824;DHT22;4951;50.778;7.196;2022-12-07T03:08:12;4.60;99.90
9824;DHT22;4951;50.778;7.196;2022-12-07T03:10:47;4.60;99.90
9824;DHT22;4951;50.778;7.196;2022-12-07T03:13:23;4.60;99.90
9824;DHT22;4951;50.778;7.196;2022-12-07T03:15:57;4.60;99.90
9824;DHT22;4951;50.778;7.196;2022-12-07T03:18:27;4.60;99.90
9824;DHT22;4951;50.778;7.196;2022-12-07T03:21:05;4.60;99.90
9824;DHT22;4951;50.778;7.196;2022-12-07T03:23:34;4.60;99.90
9824;DHT22;4951;50.778;7.196;2022-12-07T03:26:04;4.60;99.90
9824;DHT22;4951;50.778;7.196;2022-12-07T03:28:35;4.60;99.90
9824;DHT22;4951;50.778;7.196;2022-12-07T03:31:10;4.60;99.90
9824;DHT22;4951;50.778;7.196;2022-12-07T03:33:42;4.60;99.90
9824;DHT22;4951;50.778;7.196;2022-12-07T03:36:16;4.60;99.90
9824;DHT22;4951;50.778;7.196;2022-12-07T03:38:49;4.60;99.90
9824;DHT22;4951;50.778;7.196;2022-12-07T03:41:22;4.60;99.90
9824;DHT22;4951;50.778;7.196;2022-12-07T03:43:50;4.60;99.90
9824;DHT22;4951;50.778;7.196;2022-12-07T03:46:22;4.70;99.90
9824;DHT22;4951;50.778;7.196;2022-12-07T03:48:59;4.60;99.90
9824;DHT22;4951;50.778;7.196;2022-12-07T03:51:32;4.60;99.90
9824;DHT22;4951;50.778;7.196;2022-12-07T03:54:10;4.60;99.90
9824;DHT22;4951;50.778;7.196;2022-12-07T03:56:39;4.70;99.90
9824;DHT22;4951;50.778;7.196;2022-12-07T03:59:07;4.70;99.90
9824;DHT22;4951;50.778;7.196;2022-12-07T04:01:37;4.70;99.90
9824;DHT22;4951;50.778;7.196;2022-12-07T04:04:04;4.70;99.90
9824;DHT22;4951;50.778;7.196;2022-12-07T04:06:31;4.70;99.90
9824;DHT22;4951;50.778;7.196;2022-12-07T04:08:58;4.70;99.90
9824;DHT22;4951;50.778;7.196;2022-12-07T04:11:25;4.70;99.90
9824;DHT22;4951;50.778;7.196;2022-12-07T04:13:52;4.70;99.90
9824;DHT22;4951;50.778;7.196;2022-12-07T04:16:37;4.70;99.90
9824;DHT22;4951;50.778;7.196;2022-12-07T04:19:04;4.70;99.90
9824;DHT22;4951;50.778;7.196;2022-12-07T04:21:31;4.70;99.90
9824;DHT22;4951;50.778;7.196;2022-12-07T04:23:59;4.60;99.90
9824;DHT22;4951;50.778;7.196;2022-12-07T04:26:27;4.70;99.90
9824;DHT22;4951;50.778;7.196;2022-12-07T04:28:54;4.70;99.90
9824;DHT22;4951;50.778;7.196;2022-12-07T04:31:21;4.70;99.90
9824;DHT22;4951;50.778;7.196;2022-12-07T04:33:49;4.70;99.90
9824;DHT22;4951;50.778;7.196;2022-12-07T04:36:17;4.70;99.90
9824;DHT22;4951;50.778;7.196;2022-12-07T04:38:45;4.70;99.90
9824;DHT22;4951;50.778;7.196;2022-12-07T04:41:12;4.70;99.90
9824;DHT22;4951;50.778;7.196;2022-12-07T04:43:39;4.70;99.90
9824;DHT22;4951;50.778;7.196;2022-12-07T04:46:06;4.70;99.90
9824;DHT22;4951;50.778;7.196;2022-12-07T04:48:33;4.70;99.90
9824;DHT22;4951;50.778;7.196;2022-12-07T04:51:02;4.70;99.90
9824;DHT22;4951;50.778;7.196;2022-12-07T04:53:31;4.70;99.90
9824;DHT22;4951;50.778;7.196;2022-12-07T04:55:58;4.70;99.90
9824;DHT22;4951;50.778;7.196;2022-12-07T04:58:27;4.70;99.90
9824;DHT22;4951;50.778;7.196;2022-12-07T05:00:54;4.70;99.90
9824;DHT22;4951;50.778;7.196;2022-12-07T05:03:21;4.70;99.90
9824;DHT22;4951;50.778;7.196;2022-12-07T05:05:48;4.70;99.90
9824;DHT22;4951;50.778;7.196;2022-12-07T05:08:17;4.70;99.90
9824;DHT22;4951;50.778;7.196;2022-12-07T05:10:44;4.70;99.90
9824;DHT22;4951;50.778;7.196;2022-12-07T05:13:11;4.70;99.90
9824;DHT22;4951;50.778;7.196;2022-12-07T05:15:38;4.70;99.90
9824;DHT22;4951;50.778;7.196;2022-12-07T05:18:05;4.70;99.90
9824;DHT22;4951;50.778;7.196;2022-12-07T05:20:32;4.70;99.90
9824;DHT22;4951;50.778;7.196;2022-12-07T05:22:59;4.70;99.90
9824;DHT22;4951;50.778;7.196;2022-12-07T05:25:27;4.70;99.90
9824;DHT22;4951;50.778;7.196;2022-12-07T05:27:55;4.70;99.90
9824;DHT22;4951;50.778;7.196;2022-12-07T05:30:22;4.70;99.90
9824;DHT22;4951;50.778;7.196;2022-12-07T05:32:49;4.70;99.90
9824;DHT22;4951;50.778;7.196;2022-12-07T05:35:16;4.70;99.90
9824;DHT22;4951;50.778;7.196;2022-12-07T05:37:44;4.70;99.90
9824;DHT22;4951;50.778;7.196;2022-12-07T05:40:13;4.70;99.90
9824;DHT22;4951;50.778;7.196;2022-12-07T05:42:42;4.70;99.90
9824;DHT22;4951;50.778;7.196;2022-12-07T05:45:10;4.70;99.90
9824;DHT22;4951;50.778;7.196;2022-12-07T05:47:37;4.70;99.90
9824;DHT22;4951;50.778;7.196;2022-12-07T05:50:06;4.70;99.90
9824;DHT22;4951;50.778;7.196;2022-12-07T05:52:33;4.70;99.90
9824;DHT22;4951;50.778;7.196;2022-12-07T05:55:00;4.70;99.90
9824;DHT22;4951;50.778;7.196;2022-12-07T05:57:27;4.70;99.90
9824;DHT22;4951;50.778;7.196;2022-12-07T05:59:55;4.70;99.90
9824;DHT22;4951;50.778;7.196;2022-12-07T06:02:21;4.70;99.90
9824;DHT22;4951;50.778;7.196;2022-12-07T06:04:48;4.70;99.90
9824;DHT22;4951;50.778;7.196;2022-12-07T06:07:16;4.70;99.90
9824;DHT22;4951;50.778;7.196;2022-12-07T06:09:43;4.70;99.90
9824;DHT22;4951;50.778;7.196;2022-12-07T06:12:11;4.70;99.90
9824;DHT22;4951;50.778;7.196;2022-12-07T06:14:57;4.60;99.90
9824;DHT22;4951;50.778;7.196;2022-12-07T06:17:24;4.60;99.90
9824;DHT22;4951;50.778;7.196;2022-12-07T06:19:51;4.60;99.90
9824;DHT22;4951;50.778;7.196;2022-12-07T06:22:18;4.60;99.90
9824;DHT22;4951;50.778;7.196;2022-12-07T06:24:45;4.60;99.90
9824;DHT22;4951;50.778;7.196;2022-12-07T06:27:13;4.60;99.90
9824;DHT22;4951;50.778;7.196;2022-12-07T06:29:40;4.60;99.90
9824;DHT22;4951;50.778;7.196;2022-12-07T06:32:08;4.60;99.90
9824;DHT22;4951;50.778;7.196;2022-12-07T06:34:36;4.60;99.90
9824;DHT22;4951;50.778;7.196;2022-12-07T06:37:03;4.50;99.90
9824;DHT22;4951;50.778;7.196;2022-12-07T06:39:30;4.50;99.90
9824;DHT22;4951;50.778;7.196;2022-12-07T06:41:57;4.40;99.90
9824;DHT22;4951;50.778;7.196;2022-12-07T06:44:25;4.30;99.90
9824;DHT22;4951;50.778;7.196;2022-12-07T06:46:52;4.20;99.90
9824;DHT22;4951;50.778;7.196;2022-12-07T06:49:20;4.10;99.90
9824;DHT22;4951;50.778;7.196;2022-12-07T06:51:47;4.10;99.90
9824;DHT22;4951;50.778;7.196;2022-12-07T06:54:15;4.10;99.90
9824;DHT22;4951;50.778;7.196;2022-12-07T06:56:43;4.10;99.90
9824;DHT22;4951;50.778;7.196;2022-12-07T06:59:10;4.10;99.90
9824;DHT22;4951;50.778;7.196;2022-12-07T07:01:38;4.10;99.90
9824;DHT22;4951;50.778;7.196;2022-12-07T07:04:05;4.00;99.90
9824;DHT22;4951;50.778;7.196;2022-12-07T07:06:33;4.00;99.90
9824;DHT22;4951;50.778;7.196;2022-12-07T07:09:01;4.00;99.90
9824;DHT22;4951;50.778;7.196;2022-12-07T07:11:28;4.00;99.90
9824;DHT22;4951;50.778;7.196;2022-12-07T07:13:55;4.00;99.90
9824;DHT22;4951;50.778;7.196;2022-12-07T07:16:28;4.00;99.90
9824;DHT22;4951;50.778;7.196;2022-12-07T07:18:55;4.00;99.90
9824;DHT22;4951;50.778;7.196;2022-12-07T07:21:22;4.10;99.90
9824;DHT22;4951;50.778;7.196;2022-12-07T07:23:51;4.10;99.90
9824;DHT22;4951;50.778;7.196;2022-12-07T07:26:18;4.10;99.90
9824;DHT22;4951;50.778;7.196;2022-12-07T07:28:45;4.10;99.90
9824;DHT22;4951;50.778;7.196;2022-12-07T07:31:13;4.10;99.90
9824;DHT22;4951;50.778;7.196;2022-12-07T07:33:39;4.10;99.90
9824;DHT22;4951;50.778;7.196;2022-12-07T07:36:07;4.20;99.90
9824;DHT22;4951;50.778;7.196;2022-12-07T07:38:34;4.20;99.90
9824;DHT22;4951;50.778;7.196;2022-12-07T07:41:02;4.20;99.90
9824;DHT22;4951;50.778;7.196;2022-12-07T07:43:29;4.20;99.90
9824;DHT22;4951;50.778;7.196;2022-12-07T07:45:57;4.30;99.90
9824;DHT22;4951;50.778;7.196;2022-12-07T07:48:24;4.30;99.90
9824;DHT22;4951;50.778;7.196;2022-12-07T07:50:51;4.30;99.90
9824;DHT22;4951;50.778;7.196;2022-12-07T07:53:18;4.30;99.90
9824;DHT22;4951;50.778;7.196;2022-12-07T07:55:51;4.30;99.90
9824;DHT22;4951;50.778;7.196;2022-12-07T07:58:20;4.30;99.90
9824;DHT22;4951;50.778;7.196;2022-12-07T08:00:50;4.30;99.90
9824;DHT22;4951;50.778;7.196;2022-12-07T08:03:17;4.20;99.90
9824;DHT22;4951;50.778;7.196;2022-12-07T08:05:44;4.20;99.90
9824;DHT22;4951;50.778;7.196;2022-12-07T08:08:11;4.20;99.90
9824;DHT22;4951;50.778;7.196;2022-12-07T08:10:39;4.20;99.90
9824;DHT22;4951;50.778;7.196;2022-12-07T08:13:06;4.30;99.90
9824;DHT22;4951;50.778;7.196;2022-12-07T08:15:43;4.20;99.90
9824;DHT22;4951;50.778;7.196;2022-12-07T08:18:11;4.20;99.90
9824;DHT22;4951;50.778;7.196;2022-12-07T08:20:38;4.20;99.90
9824;DHT22;4951;50.778;7.196;2022-12-07T08:23:06;4.20;99.90
9824;DHT22;4951;50.778;7.196;2022-12-07T08:25:34;4.20;99.90
9824;DHT22;4951;50.778;7.196;2022-12-07T08:28:01;4.30;99.90
9824;DHT22;4951;50.778;7.196;2022-12-07T08:30:30;4.30;99.90
9824;DHT22;4951;50.778;7.196;2022-12-07T08:32:58;4.40;99.90
9824;DHT22;4951;50.778;7.196;2022-12-07T08:35:25;4.40;99.90
9824;DHT22;4951;50.778;7.196;2022-12-07T08:37:52;4.40;99.90
9824;DHT22;4951;50.778;7.196;2022-12-07T08:40:19;4.50;99.90
9824;DHT22;4951;50.778;7.196;2022-12-07T08:42:48;4.50;99.90
9824;DHT22;4951;50.778;7.196;2022-12-07T08:45:17;4.50;99.90
9824;DHT22;4951;50.778;7.196;2022-12-07T08:47:48;4.50;99.90
9824;DHT22;4951;50.778;7.196;2022-12-07T08:50:17;4.60;99.90
9824;DHT22;4951;50.778;7.196;2022-12-07T08:52:49;4.70;99.90
9824;DHT22;4951;50.778;7.196;2022-12-07T08:55:16;4.70;99.90
9824;DHT22;4951;50.778;7.196;2022-12-07T08:57:44;4.70;99.90
9824;DHT22;4951;50.778;7.196;2022-12-07T09:00:12;4.80;99.90
9824;DHT22;4951;50.778;7.196;2022-12-07T09:02:40;4.80;99.90
9824;DHT22;4951;50.778;7.196;2022-12-07T09:05:08;4.70;99.90
9824;DHT22;4951;50.778;7.196;2022-12-07T09:07:37;4.70;99.90
9824;DHT22;4951;50.778;7.196;2022-12-07T09:10:06;4.70;99.90
9824;DHT22;4951;50.778;7.196;2022-12-07T09:12:33;4.70;99.90
9824;DHT22;4951;50.778;7.196;2022-12-07T09:15:00;4.70;99.90
9824;DHT22;4951;50.778;7.196;2022-12-07T09:17:27;4.70;99.90
9824;DHT22;4951;50.778;7.196;2022-12-07T09:19:54;4.80;99.90
9824;DHT22;4951;50.778;7.196;2022-12-07T09:22:21;4.80;99.90
9824;DHT22;4951;50.778;7.196;2022-12-07T09:24:49;4.80;99.90
9824;DHT22;4951;50.778;7.196;2022-12-07T09:27:16;4.90;99.90
9824;DHT22;4951;50.778;7.196;2022-12-07T09:29:44;4.90;99.90
9824;DHT22;4951;50.778;7.196;2022-12-07T09:32:11;4.90;99.90
9824;DHT22;4951;50.778;7.196;2022-12-07T09:34:38;4.90;99.90
9824;DHT22;4951;50.778;7.196;2022-12-07T09:37:05;5.00;99.90
9824;DHT22;4951;50.778;7.196;2022-12-07T09:39:32;5.00;99.90
9824;DHT22;4951;50.778;7.196;2022-12-07T09:42:03;5.00;99.90
9824;DHT22;4951;50.778;7.196;2022-12-07T09:44:31;5.00;99.90
9824;DHT22;4951;50.778;7.196;2022-12-07T09:46:59;5.00;99.90
9824;DHT22;4951;50.778;7.196;2022-12-07T09:49:29;5.00;99.90
9824;DHT22;4951;50.778;7.196;2022-12-07T09:52:03;5.00;99.90
9824;DHT22;4951;50.778;7.196;2022-12-07T09:54:30;5.10;99.90
9824;DHT22;4951;50.778;7.196;2022-12-07T09:56:58;5.10;99.90
9824;DHT22;4951;50.778;7.196;2022-12-07T09:59:27;5.10;99.90
9824;DHT22;4951;50.778;7.196;2022-12-07T10:01:55;5.20;99.90
9824;DHT22;4951;50.778;7.196;2022-12-07T10:04:24;5.30;99.90
9824;DHT22;4951;50.778;7.196;2022-12-07T10:06:52;5.30;99.90
9824;DHT22;4951;50.778;7.196;2022-12-07T10:09:20;5.30;99.90
9824;DHT22;4951;50.778;7.196;2022-12-07T10:12:05;5.30;99.90
9824;DHT22;4951;50.778;7.196;2022-12-07T10:14:36;5.30;99.90
9824;DHT22;4951;50.778;7.196;2022-12-07T10:17:29;5.30;99.90
9824;DHT22;4951;50.778;7.196;2022-12-07T10:20:16;5.20;99.90
9824;DHT22;4951;50.778;7.196;2022-12-07T10:22:58;5.20;99.90
9824;DHT22;4951;50.778;7.196;2022-12-07T10:25:28;5.10;99.90
9824;DHT22;4951;50.778;7.196;2022-12-07T10:28:00;5.10;99.90
9824;DHT22;4951;50.778;7.196;2022-12-07T10:30:30;5.10;99.90
9824;DHT22;4951;50.778;7.196;2022-12-07T10:32:58;5.20;99.90
9824;DHT22;4951;50.778;7.196;2022-12-07T10:35:30;5.20;99.90
9824;DHT22;4951;50.778;7.196;2022-12-07T10:37:59;5.20;99.90
9824;DHT22;4951;50.778;7.196;2022-12-07T10:40:32;5.30;99.90
9824;DHT22;4951;50.778;7.196;2022-12-07T10:43:16;5.30;99.90
9824;DHT22;4951;50.778;7.196;2022-12-07T10:46:04;5.30;99.90
9824;DHT22;4951;50.778;7.196;2022-12-07T10:48:38;5.50;99.90
9824;DHT22;4951;50.778;7.196;2022-12-07T10:51:12;5.50;99.90
9824;DHT22;4951;50.778;7.196;2022-12-07T10:53:50;5.60;99.90
9824;DHT22;4951;50.778;7.196;2022-12-07T10:59:39;5.70;99.90
9824;DHT22;4951;50.778;7.196;2022-12-07T11:02:25;6.00;99.90
9824;DHT22;4951;50.778;7.196;2022-12-07T11:05:10;6.20;99.90
9824;DHT22;4951;50.778;7.196;2022-12-07T11:07:47;6.30;99.90
9824;DHT22;4951;50.778;7.196;2022-12-07T11:10:20;6.30;99.90
9824;DHT22;4951;50.778;7.196;2022-12-07T11:13:04;6.30;99.90
9824;DHT22;4951;50.778;7.196;2022-12-07T11:15:48;6.20;99.90
9824;DHT22;4951;50.778;7.196;2022-12-07T11:18:24;6.10;99.90
9824;DHT22;4951;50.778;7.196;2022-12-07T11:20:57;6.10;99.90
9824;DHT22;4951;50.778;7.196;2022-12-07T11:23:44;6.00;99.90
9824;DHT22;4951;50.778;7.196;2022-12-07T11:26:21;5.90;99.90
9824;DHT22;4951;50.778;7.196;2022-12-07T11:29:06;5.90;99.90
9824;DHT22;4951;50.778;7.196;2022-12-07T11:31:39;5.90;99.90
9824;DHT22;4951;50.778;7.196;2022-12-07T11:34:16;5.90;99.90
9824;DHT22;4951;50.778;7.196;2022-12-07T11:36:47;5.90;99.90
9824;DHT22;4951;50.778;7.196;2022-12-07T11:39:22;5.90;99.90
9824;DHT22;4951;50.778;7.196;2022-12-07T11:41:57;6.10;99.90
9824;DHT22;4951;50.778;7.196;2022-12-07T11:44:32;6.30;99.90
9824;DHT22;4951;50.778;7.196;2022-12-07T11:47:05;6.40;99.90
9824;DHT22;4951;50.778;7.196;2022-12-07T11:49:43;6.60;99.90
9824;DHT22;4951;50.778;7.196;2022-12-07T11:52:18;6.60;99.90
9824;DHT22;4951;50.778;7.196;2022-12-07T11:54:50;6.60;99.90
9824;DHT22;4951;50.778;7.196;2022-12-07T11:57:20;6.60;99.90
9824;DHT22;4951;50.778;7.196;2022-12-07T11:59:53;6.50;99.90
9824;DHT22;4951;50.778;7.196;2022-12-07T12:02:28;6.40;99.90
9824;DHT22;4951;50.778;7.196;2022-12-07T12:05:05;6.40;99.90
9824;DHT22;4951;50.778;7.196;2022-12-07T12:07:36;6.30;99.90
9824;DHT22;4951;50.778;7.196;2022-12-07T12:10:13;6.30;99.90
9824;DHT22;4951;50.778;7.196;2022-12-07T12:13:06;6.30;92.40
9824;DHT22;4951;50.778;7.196;2022-12-07T12:15:47;6.20;77.40
9824;DHT22;4951;50.778;7.196;2022-12-07T12:18:34;6.20;60.80
9824;DHT22;4951;50.778;7.196;2022-12-07T12:21:09;6.10;48.50
9824;DHT22;4951;50.778;7.196;2022-12-07T12:23:40;6.10;42.00
9824;DHT22;4951;50.778;7.196;2022-12-07T12:26:16;6.00;31.30
9824;DHT22;4951;50.778;7.196;2022-12-07T12:28:52;5.90;5.10
9824;DHT22;4951;50.778;7.196;2022-12-07T12:31:35;5.70;1.00
9824;DHT22;4951;50.778;7.196;2022-12-07T12:34:30;5.50;1.00
9824;DHT22;4951;50.778;7.196;2022-12-07T12:36:59;5.30;1.00
9824;DHT22;4951;50.778;7.196;2022-12-07T12:39:27;5.20;1.00
9824;DHT22;4951;50.778;7.196;2022-12-07T12:41:56;5.10;1.00
9824;DHT22;4951;50.778;7.196;2022-12-07T12:44:40;5.10;1.00
9824;DHT22;4951;50.778;7.196;2022-12-07T12:47:42;5.10;1.00
9824;DHT22;4951;50.778;7.196;2022-12-07T12:50:17;5.10;1.00
9824;DHT22;4951;50.778;7.196;2022-12-07T12:52:55;5.10;1.00
9824;DHT22;4951;50.778;7.196;2022-12-07T12:58:39;5.10;3.90
9824;DHT22;4951;50.778;7.196;2022-12-07T13:01:40;5.10;11.10
9824;DHT22;4951;50.778;7.196;2022-12-07T13:04:40;5.10;19.90
9824;DHT22;4951;50.778;7.196;2022-12-07T13:10:36;5.20;44.70
9824;DHT22;4951;50.778;7.196;2022-12-07T13:13:08;5.20;52.60
9824;DHT22;4951;50.778;7.196;2022-12-07T13:15:53;5.30;56.70
9824;DHT22;4951;50.778;7.196;2022-12-07T13:18:25;5.30;58.80
9824;DHT22;4951;50.778;7.196;2022-12-07T13:21:01;5.30;54.80
9824;DHT22;4951;50.778;7.196;2022-12-07T13:23:31;5.30;53.30
9824;DHT22;4951;50.778;7.196;2022-12-07T13:26:18;5.30;54.30
9824;DHT22;4951;50.778;7.196;2022-12-07T13:28:48;5.30;57.30
9824;DHT22;4951;50.778;7.196;2022-12-07T13:31:32;5.30;54.50
9824;DHT22;4951;50.778;7.196;2022-12-07T13:34:00;5.30;49.80
9824;DHT22;4951;50.778;7.196;2022-12-07T13:36:29;5.20;47.30
9824;DHT22;4951;50.778;7.196;2022-12-07T13:39:17;5.20;43.30
9824;DHT22;4951;50.778;7.196;2022-12-07T13:41:50;5.20;39.60
9824;DHT22;4951;50.778;7.196;2022-12-07T13:44:19;5.20;37.30
9824;DHT22;4951;50.778;7.196;2022-12-07T13:46:52;5.10;38.10
9824;DHT22;4951;50.778;7.196;2022-12-07T13:49:23;5.20;40.70
9824;DHT22;4951;50.778;7.196;2022-12-07T13:51:52;5.10;41.50
9824;DHT22;4951;50.778;7.196;2022-12-07T13:54:20;5.10;43.30
9824;DHT22;4951;50.778;7.196;2022-12-07T13:56:51;5.20;47.00
9824;DHT22;4951;50.778;7.196;2022-12-07T13:59:20;5.20;51.10
9824;DHT22;4951;50.778;7.196;2022-12-07T14:01:49;5.20;53.40
9824;DHT22;4951;50.778;7.196;2022-12-07T14:04:24;5.20;54.90
9824;DHT22;4951;50.778;7.196;2022-12-07T14:06:54;5.20;56.60
9824;DHT22;4951;50.778;7.196;2022-12-07T14:09:23;5.20;55.50
9824;DHT22;4951;50.778;7.196;2022-12-07T14:11:56;5.20;54.10
9824;DHT22;4951;50.778;7.196;2022-12-07T14:14:26;5.20;53.30
9824;DHT22;4951;50.778;7.196;2022-12-07T14:17:00;5.20;55.50
9824;DHT22;4951;50.778;7.196;2022-12-07T14:19:45;5.20;57.90
9824;DHT22;4951;50.778;7.196;2022-12-07T14:22:27;5.20;58.20
9824;DHT22;4951;50.778;7.196;2022-12-07T14:25:11;5.20;58.10
9824;DHT22;4951;50.778;7.196;2022-12-07T14:27:50;5.20;57.10
9824;DHT22;4951;50.778;7.196;2022-12-07T14:30:19;5.20;53.60
9824;DHT22;4951;50.778;7.196;2022-12-07T14:32:48;5.20;50.00
9824;DHT22;4951;50.778;7.196;2022-12-07T14:35:18;5.20;46.60
9824;DHT22;4951;50.778;7.196;2022-12-07T14:37:47;5.20;42.30
9824;DHT22;4951;50.778;7.196;2022-12-07T14:40:17;5.20;31.60
9824;DHT22;4951;50.778;7.196;2022-12-07T14:42:45;5.20;6.40
9824;DHT22;4951;50.778;7.196;2022-12-07T14:45:16;5.10;1.00
9824;DHT22;4951;50.778;7.196;2022-12-07T14:47:45;5.10;1.00
9824;DHT22;4951;50.778;7.196;2022-12-07T14:50:13;5.10;1.00
9824;DHT22;4951;50.778;7.196;2022-12-07T14:52:42;5.00;1.00
9824;DHT22;4951;50.778;7.196;2022-12-07T14:55:14;5.00;1.00
9824;DHT22;4951;50.778;7.196;2022-12-07T14:57:43;5.00;1.00
9824;DHT22;4951;50.778;7.196;2022-12-07T15:00:16;5.00;1.00
9824;DHT22;4951;50.778;7.196;2022-12-07T15:02:44;5.00;1.00
9824;DHT22;4951;50.778;7.196;2022-12-07T15:05:11;4.90;1.00
9824;DHT22;4951;50.778;7.196;2022-12-07T15:07:39;4.90;1.00
9824;DHT22;4951;50.778;7.196;2022-12-07T15:10:13;4.90;1.00
9824;DHT22;4951;50.778;7.196;2022-12-07T15:12:41;4.90;1.00
9824;DHT22;4951;50.778;7.196;2022-12-07T15:15:09;4.80;1.00
9824;DHT22;4951;50.778;7.196;2022-12-07T15:17:38;4.80;1.00
9824;DHT22;4951;50.778;7.196;2022-12-07T15:20:08;4.80;1.00
9824;DHT22;4951;50.778;7.196;2022-12-07T15:22:37;4.80;1.00
9824;DHT22;4951;50.778;7.196;2022-12-07T15:25:04;4.70;1.00
9824;DHT22;4951;50.778;7.196;2022-12-07T15:27:32;4.70;1.00
9824;DHT22;4951;50.778;7.196;2022-12-07T15:30:00;4.70;1.00
9824;DHT22;4951;50.778;7.196;2022-12-07T15:32:27;4.70;1.00
9824;DHT22;4951;50.778;7.196;2022-12-07T15:34:55;4.70;1.00
9824;DHT22;4951;50.778;7.196;2022-12-07T15:37:22;4.70;1.00
9824;DHT22;4951;50.778;7.196;2022-12-07T15:39:49;4.70;1.00
9824;DHT22;4951;50.778;7.196;2022-12-07T15:42:16;4.70;1.00
9824;DHT22;4951;50.778;7.196;2022-12-07T15:44:43;4.80;1.00
9824;DHT22;4951;50.778;7.196;2022-12-07T15:47:27;4.70;1.00
9824;DHT22;4951;50.778;7.196;2022-12-07T15:49:56;4.70;1.00
9824;DHT22;4951;50.778;7.196;2022-12-07T15:52:23;4.80;1.00
9824;DHT22;4951;50.778;7.196;2022-12-07T15:54:50;4.70;1.00
9824;DHT22;4951;50.778;7.196;2022-12-07T15:57:17;4.70;1.00
9824;DHT22;4951;50.778;7.196;2022-12-07T15:59:45;4.70;1.00
9824;DHT22;4951;50.778;7.196;2022-12-07T16:02:12;4.70;1.00
9824;DHT22;4951;50.778;7.196;2022-12-07T16:04:39;4.70;1.00
9824;DHT22;4951;50.778;7.196;2022-12-07T16:07:07;4.70;1.00
9824;DHT22;4951;50.778;7.196;2022-12-07T16:09:36;4.70;1.00
9824;DHT22;4951;50.778;7.196;2022-12-07T16:12:03;4.70;1.00
9824;DHT22;4951;50.778;7.196;2022-12-07T16:14:30;4.70;1.00
9824;DHT22;4951;50.778;7.196;2022-12-07T16:16:59;4.70;1.00
9824;DHT22;4951;50.778;7.196;2022-12-07T16:19:26;4.70;1.00
9824;DHT22;4951;50.778;7.196;2022-12-07T16:21:53;4.70;1.00
9824;DHT22;4951;50.778;7.196;2022-12-07T16:24:21;4.70;2.60
9824;DHT22;4951;50.778;7.196;2022-12-07T16:26:49;4.70;5.00
9824;DHT22;4951;50.778;7.196;2022-12-07T16:29:17;4.70;5.00
9824;DHT22;4951;50.778;7.196;2022-12-07T16:31:45;4.70;6.00
9824;DHT22;4951;50.778;7.196;2022-12-07T16:34:12;4.70;4.70
9824;DHT22;4951;50.778;7.196;2022-12-07T16:36:39;4.70;5.40
9824;DHT22;4951;50.778;7.196;2022-12-07T16:39:08;4.70;5.50
9824;DHT22;4951;50.778;7.196;2022-12-07T16:41:36;4.70;7.10
9824;DHT22;4951;50.778;7.196;2022-12-07T16:44:05;4.70;8.30
9824;DHT22;4951;50.778;7.196;2022-12-07T16:46:33;4.70;10.90
9824;DHT22;4951;50.778;7.196;2022-12-07T16:49:01;4.70;15.80
9824;DHT22;4951;50.778;7.196;2022-12-07T16:51:28;4.70;17.70
9824;DHT22;4951;50.778;7.196;2022-12-07T16:53:56;4.70;16.40